Time;durP1;ratioP1;P1;durP2;ratioP2;P2;SDS_P1;SDS_P2;PMS_P1;PMS_P2;Temp;Humidity;BMP_temperature;BMP_pressure;BME280_temperature;BME280_humidity;BME280_pressure;Samples;Min_cycle;Max_cycle;Signal;HPM_P1;HPM_P2
2022/02/03 00:02:20;;;;;;;0.50;0.50;;;6.70;99.90;;;;;;5064388;28;20201;-79
2022/02/03 00:04:56;;;;;;;0.60;0.60;;;6.50;99.90;;;;;;5064256;28;20178;-79
2022/02/03 00:07:38;;;;;;;0.30;0.30;;;6.30;99.90;;;;;;5061064;28;20727;-81
2022/02/03 00:24:13;;;;;;;1.23;1.17;;;6.50;99.90;;;;;;5062232;28;20173;-77
2022/02/03 00:26:56;;;;;;;0.10;0.10;;;6.70;99.90;;;;;;5062089;28;20177;-76
2022/02/03 00:30:03;;;;;;;0.60;0.20;;;6.80;99.90;;;;;;5064479;28;20673;-77
2022/02/03 00:49:14;;;;;;;1.33;0.50;;;7.00;99.90;;;;;;5062825;28;20549;-77
2022/02/03 00:51:45;;;;;;;0.10;0.10;;;6.80;99.90;;;;;;5059725;28;20261;-77
2022/02/03 00:54:12;;;;;;;0.50;0.50;;;6.80;99.90;;;;;;5062850;28;21221;-77
2022/02/03 00:56:48;;;;;;;3.97;0.47;;;7.00;99.90;;;;;;5062302;28;20193;-77
2022/02/03 00:59:35;;;;;;;0.40;0.30;;;7.10;99.90;;;;;;5062966;28;20381;-77
2022/02/03 01:02:09;;;;;;;0.63;0.30;;;7.10;99.90;;;;;;5067384;28;20200;-77
2022/02/03 01:04:39;;;;;;;2.87;0.37;;;7.20;99.90;;;;;;5066868;28;20200;-77
2022/02/03 01:07:16;;;;;;;0.30;0.30;;;7.20;99.90;;;;;;5066643;28;20216;-77
2022/02/03 01:09:55;;;;;;;0.43;0.43;;;7.00;99.90;;;;;;5064271;28;20196;-77
2022/02/03 01:12:42;;;;;;;1.03;0.53;;;6.80;99.90;;;;;;5065438;28;20261;-77
2022/02/03 01:15:19;;;;;;;0.30;0.30;;;6.80;99.90;;;;;;5065622;28;20627;-77
2022/02/03 01:17:56;;;;;;;0.20;0.20;;;6.60;99.90;;;;;;5067339;28;20183;-77
2022/02/03 01:34:58;;;;;;;0.20;0.20;;;6.60;99.90;;;;;;5034458;28;20197;-77
2022/02/03 01:48:19;;;;;;;0.50;0.50;;;7.20;99.90;;;;;;5066912;28;20173;-77
2022/02/03 01:53:35;;;;;;;0.57;0.50;;;7.20;99.90;;;;;;5063959;28;20193;-78
2022/02/03 01:56:08;;;;;;;0.63;0.27;;;7.40;99.90;;;;;;5066344;28;20207;-78
2022/02/03 01:58:58;;;;;;;0.13;0.13;;;7.40;99.90;;;;;;5063762;28;20210;-79
2022/02/03 02:01:34;;;;;;;1.70;0.30;;;7.20;99.90;;;;;;5067564;28;20202;-78
2022/02/03 02:04:42;;;;;;;0.40;0.40;;;7.30;99.90;;;;;;5071185;28;20183;-78
2022/02/03 02:07:29;;;;;;;0.17;0.17;;;7.50;99.90;;;;;;5064561;28;21106;-78
2022/02/03 02:13:15;;;;;;;0.77;0.73;;;7.40;99.90;;;;;;5064979;28;20825;-78
2022/02/03 02:16:14;;;;;;;0.27;0.20;;;7.30;99.90;;;;;;5063800;28;20193;-78
2022/02/03 02:19:08;;;;;;;0.30;0.20;;;7.40;99.90;;;;;;5064677;28;20177;-78
2022/02/03 02:39:25;;;;;;;0.23;0.17;;;7.20;99.90;;;;;;5065464;28;20215;-77
2022/02/03 02:44:37;;;;;;;1.10;0.93;;;7.30;99.90;;;;;;5064157;28;20603;-78
2022/02/03 02:47:12;;;;;;;0.50;0.50;;;7.40;99.90;;;;;;5064162;28;20177;-78
2022/02/03 02:49:57;;;;;;;0.20;0.20;;;7.40;99.90;;;;;;5065156;28;20227;-78
2022/02/03 02:52:33;;;;;;;0.60;0.50;;;7.60;99.90;;;;;;5064023;28;20655;-78
2022/02/03 02:55:32;;;;;;;0.17;0.17;;;7.60;99.90;;;;;;5063183;28;20246;-79
2022/02/03 02:58:22;;;;;;;1.33;0.50;;;7.40;99.90;;;;;;5064731;28;20587;-78
2022/02/03 03:32:09;;;;;;;0.40;0.40;;;7.50;99.90;;;;;;5063751;28;20227;-78
2022/02/03 03:37:28;;;;;;;0.30;0.30;;;7.70;99.90;;;;;;5060219;28;20203;-78
2022/02/03 03:39:59;;;;;;;0.83;0.33;;;7.70;99.90;;;;;;5062609;28;20226;-78
2022/02/03 03:43:03;;;;;;;1.80;1.30;;;7.60;99.90;;;;;;5063290;28;20263;-79
2022/02/03 03:45:34;;;;;;;0.70;0.43;;;7.40;99.90;;;;;;5061820;28;20195;-78
2022/02/03 03:48:05;;;;;;;1.13;0.90;;;7.00;99.90;;;;;;5062538;28;20891;-79
2022/02/03 03:50:37;;;;;;;1.20;0.50;;;7.00;99.90;;;;;;5063845;28;20188;-80
2022/02/03 03:53:19;;;;;;;0.40;0.40;;;7.00;99.90;;;;;;5062811;28;20224;-79
2022/02/03 03:56:09;;;;;;;2.30;0.47;;;7.20;99.90;;;;;;5063094;28;20212;-78
2022/02/03 03:59:10;;;;;;;0.13;0.13;;;7.20;99.90;;;;;;5063276;28;20574;-78
2022/02/03 04:34:17;;;;;;;0.57;0.50;;;7.80;99.90;;;;;;5063324;28;20246;-79
2022/02/03 04:53:34;;;;;;;0.40;0.40;;;7.50;99.90;;;;;;5069335;28;20247;-78
2022/02/03 04:56:16;;;;;;;0.13;0.13;;;7.60;99.90;;;;;;5037340;28;20305;-78
2022/02/03 05:05:17;;;;;;;1.63;0.63;;;7.60;99.90;;;;;;5059240;28;20244;-78
2022/02/03 05:11:26;;;;;;;0.73;0.50;;;7.70;99.90;;;;;;5068054;28;20598;-78
2022/02/03 05:20:38;;;;;;;0.30;0.30;;;7.80;99.90;;;;;;5065161;28;20583;-79
2022/02/03 05:26:37;;;;;;;1.03;0.57;;;7.80;99.90;;;;;;5066019;28;20539;-78
2022/02/03 05:44:28;;;;;;;1.93;0.40;;;7.50;99.90;;;;;;5073592;28;20189;-78
2022/02/03 05:47:10;;;;;;;0.20;0.17;;;7.50;99.90;;;;;;5069006;28;20177;-79
2022/02/03 06:01:14;;;;;;;0.70;0.43;;;7.50;99.90;;;;;;5074415;28;20657;-78
2022/02/03 06:09:06;;;;;;;0.63;0.17;;;6.90;99.90;;;;;;5071196;28;20284;-79
2022/02/03 06:14:22;;;;;;;0.40;0.40;;;7.00;99.90;;;;;;5069124;28;20310;-78
2022/02/03 06:17:05;;;;;;;0.17;0.17;;;7.00;99.90;;;;;;5062302;28;20241;-78
2022/02/03 06:22:42;;;;;;;0.10;0.10;;;7.00;99.90;;;;;;5064743;28;20217;-79
2022/02/03 06:27:43;;;;;;;1.23;1.13;;;7.20;99.90;;;;;;5063835;28;20227;-79
2022/02/03 06:30:11;;;;;;;0.20;0.20;;;7.30;99.90;;;;;;5064017;28;20181;-78
2022/02/03 06:32:39;;;;;;;0.40;0.40;;;7.40;99.90;;;;;;5064477;28;20371;-78
2022/02/03 06:35:07;;;;;;;0.57;0.37;;;7.50;99.90;;;;;;5067098;28;20185;-79
2022/02/03 06:37:33;;;;;;;0.17;0.17;;;7.60;99.90;;;;;;5064003;28;20189;-79
2022/02/03 06:40:04;;;;;;;0.43;0.20;;;7.60;99.90;;;;;;5066055;28;20194;-79
2022/02/03 06:42:30;;;;;;;0.63;0.63;;;7.70;99.90;;;;;;5062585;28;20218;-78
2022/02/03 06:45:31;;;;;;;1.63;1.53;;;7.70;99.90;;;;;;5062137;28;20210;-78
2022/02/03 06:48:02;;;;;;;0.30;0.30;;;7.50;99.90;;;;;;5064408;28;20208;-79
2022/02/03 06:50:45;;;;;;;0.50;0.50;;;7.60;99.90;;;;;;5071596;28;20208;-79
2022/02/03 06:53:24;;;;;;;0.57;0.40;;;7.70;99.90;;;;;;5064181;28;20190;-78
2022/02/03 06:55:58;;;;;;;0.23;0.23;;;7.80;99.90;;;;;;5062213;28;20570;-78
2022/02/03 06:58:40;;;;;;;0.47;0.47;;;7.80;99.90;;;;;;5064378;28;20173;-79
2022/02/03 07:01:20;;;;;;;0.60;0.50;;;7.50;99.90;;;;;;5064853;28;20609;-79
2022/02/03 07:04:00;;;;;;;3.70;0.60;;;7.40;99.90;;;;;;5065638;28;20257;-78
2022/02/03 07:06:29;;;;;;;2.20;0.57;;;7.40;99.90;;;;;;5066052;28;20191;-78
2022/02/03 07:08:55;;;;;;;1.60;0.43;;;7.40;99.90;;;;;;5064969;28;20235;-79
2022/02/03 07:11:23;;;;;;;1.27;0.97;;;7.50;99.90;;;;;;5065087;28;20212;-79
2022/02/03 07:13:49;;;;;;;0.40;0.40;;;7.60;99.90;;;;;;5064947;28;20186;-78
2022/02/03 07:16:16;;;;;;;1.90;0.57;;;7.70;99.90;;;;;;5064699;28;20219;-79
2022/02/03 07:18:42;;;;;;;0.70;0.70;;;7.80;99.90;;;;;;5061115;28;20917;-78
2022/02/03 07:21:12;;;;;;;1.90;0.50;;;7.80;99.90;;;;;;5064277;28;20334;-78
2022/02/03 07:23:39;;;;;;;0.93;0.80;;;7.50;99.90;;;;;;5062433;28;20192;-78
2022/02/03 07:26:05;;;;;;;0.83;0.83;;;7.40;99.90;;;;;;5061142;28;20272;-80
2022/02/03 07:28:33;;;;;;;0.70;0.70;;;7.60;99.90;;;;;;5061469;28;20192;-78
2022/02/03 07:30:59;;;;;;;0.30;0.30;;;7.70;99.90;;;;;;5064344;28;20190;-78
2022/02/03 07:33:25;;;;;;;3.10;0.50;;;7.80;99.90;;;;;;5067114;28;20185;-78
2022/02/03 07:35:51;;;;;;;0.30;0.30;;;7.80;99.90;;;;;;5063629;28;20212;-78
2022/02/03 07:38:21;;;;;;;0.83;0.70;;;7.90;99.90;;;;;;5061833;28;20607;-79
2022/02/03 07:40:49;;;;;;;0.77;0.60;;;8.10;99.90;;;;;;5063257;28;20192;-80
2022/02/03 07:43:16;;;;;;;0.97;0.50;;;8.00;99.90;;;;;;5061662;28;20196;-79
2022/02/03 07:45:42;;;;;;;0.50;0.50;;;8.10;99.90;;;;;;5063475;28;20611;-79
2022/02/03 07:48:08;;;;;;;0.73;0.33;;;8.20;99.90;;;;;;5061589;28;20190;-78
2022/02/03 07:50:35;;;;;;;0.90;0.90;;;8.20;99.90;;;;;;5062417;28;20184;-78
2022/02/03 07:53:01;;;;;;;0.67;0.67;;;8.20;99.90;;;;;;5062176;28;20243;-78
2022/02/03 07:55:27;;;;;;;0.53;0.30;;;8.20;99.90;;;;;;5065414;28;20574;-78
2022/02/03 07:57:54;;;;;;;0.20;0.20;;;8.30;99.90;;;;;;5072876;28;20223;-80
2022/02/03 08:00:23;;;;;;;0.50;0.50;;;8.40;99.90;;;;;;5078645;28;20407;-80
2022/02/03 08:02:49;;;;;;;1.17;0.83;;;8.40;99.90;;;;;;5079326;28;20219;-82
2022/02/03 08:05:19;;;;;;;0.63;0.63;;;8.30;99.90;;;;;;5078305;28;20214;-82
2022/02/03 08:07:50;;;;;;;0.30;0.30;;;8.20;99.90;;;;;;5076639;28;20190;-81
2022/02/03 08:10:33;;;;;;;0.37;0.37;;;8.30;99.90;;;;;;5090322;28;20272;-81
2022/02/03 08:13:02;;;;;;;0.10;0.10;;;8.40;99.90;;;;;;5091999;28;20311;-82
2022/02/03 08:15:30;;;;;;;0.40;0.40;;;8.30;99.90;;;;;;5090359;28;20212;-82
2022/02/03 08:18:04;;;;;;;0.30;0.30;;;8.40;99.90;;;;;;5084840;28;20213;-82
2022/02/03 08:20:31;;;;;;;0.43;0.43;;;8.40;99.90;;;;;;5082686;28;20172;-82
2022/02/03 08:23:58;;;;;;;0.37;0.37;;;8.50;99.90;;;;;;5091611;28;20425;-82
2022/02/03 08:25:53;;;;;;;0.10;0.10;;;8.50;99.90;;;;;;5092747;28;20198;-83
2022/02/03 08:29:07;;;;;;;0.53;0.30;;;8.50;99.90;;;;;;5089565;28;20246;-82
2022/02/03 08:31:21;;;;;;;0.70;0.70;;;8.50;99.90;;;;;;5090379;28;20197;-82
2022/02/03 08:33:57;;;;;;;0.60;0.60;;;8.00;99.90;;;;;;5087422;28;20167;-82
2022/02/03 08:36:25;;;;;;;2.10;0.27;;;8.20;99.90;;;;;;5094013;28;20207;-82
2022/02/03 08:38:56;;;;;;;2.07;1.03;;;8.40;99.90;;;;;;5090269;28;20206;-83
2022/02/03 08:41:25;;;;;;;0.33;0.33;;;8.40;99.90;;;;;;5089105;28;20261;-82
2022/02/03 08:43:51;;;;;;;1.60;0.37;;;8.60;99.90;;;;;;5080700;28;20937;-82
2022/02/03 08:46:18;;;;;;;0.30;0.30;;;8.70;99.90;;;;;;5087228;28;20186;-82
2022/02/03 08:48:44;;;;;;;0.17;0.17;;;8.90;99.90;;;;;;5083371;28;20181;-82
2022/02/03 08:51:13;;;;;;;0.53;0.50;;;9.00;99.90;;;;;;5084100;28;20213;-82
2022/02/03 08:53:49;;;;;;;0.30;0.30;;;9.00;99.90;;;;;;5081422;28;20185;-81
2022/02/03 09:30:34;;;;;;;0.20;0.20;;;9.50;99.90;;;;;;5065183;28;20213;-77
2022/02/03 09:51:19;;;;;;;0.30;0.30;;;10.00;99.90;;;;;;5065568;28;20190;-76
2022/02/03 09:56:09;;;;;;;0.30;0.30;;;10.10;99.90;;;;;;5062992;28;20286;-77
2022/02/03 09:58:41;;;;;;;0.20;0.20;;;10.10;99.90;;;;;;5064707;28;20302;-77
2022/02/03 10:01:16;;;;;;;0.20;0.20;;;10.20;99.90;;;;;;5061907;28;20220;-76
2022/02/03 10:06:17;;;;;;;0.50;0.20;;;10.30;99.90;;;;;;5063837;28;20185;-77
2022/02/03 10:08:49;;;;;;;0.83;0.40;;;10.30;99.90;;;;;;5063145;28;20194;-77
2022/02/03 10:11:15;;;;;;;0.33;0.27;;;10.20;99.90;;;;;;5060288;28;20208;-77
2022/02/03 10:13:56;;;;;;;0.37;0.33;;;10.10;99.90;;;;;;5064829;28;20199;-77
2022/02/03 10:16:28;;;;;;;0.30;0.30;;;10.10;99.90;;;;;;5062269;28;20203;-77
2022/02/03 10:19:18;;;;;;;0.30;0.30;;;10.00;99.90;;;;;;5062478;28;20260;-77
2022/02/03 10:21:50;;;;;;;0.10;0.10;;;10.00;99.90;;;;;;5062837;28;20203;-76
2022/02/03 10:24:18;;;;;;;0.10;0.10;;;9.90;99.90;;;;;;5064762;28;20173;-79
2022/02/03 10:26:51;;;;;;;0.10;0.10;;;9.90;99.90;;;;;;5050808;28;20185;-77
2022/02/03 10:29:25;;;;;;;0.47;0.47;;;9.90;99.90;;;;;;5060131;28;20221;-76
2022/02/03 10:31:52;;;;;;;0.40;0.30;;;10.00;99.90;;;;;;5055701;28;20606;-77
2022/02/03 10:34:27;;;;;;;0.17;0.17;;;10.00;99.90;;;;;;5049481;28;20532;-77
2022/02/03 10:40:19;;;;;;;0.10;0.10;;;10.40;99.90;;;;;;5062928;28;20174;-77
2022/02/03 11:11:39;;;;;;;0.10;0.10;;;10.20;99.90;;;;;;5062513;28;20219;-78
2022/02/03 11:14:05;;;;;;;0.10;0.10;;;10.10;99.90;;;;;;5062455;28;20184;-78
2022/02/03 11:16:39;;;;;;;0.20;0.20;;;10.10;99.90;;;;;;5061472;28;20565;-78
2022/02/03 11:19:09;;;;;;;0.10;0.10;;;10.10;99.90;;;;;;5061977;28;20903;-80
2022/02/03 11:21:36;;;;;;;0.10;0.10;;;10.20;99.90;;;;;;5061988;28;20615;-77
2022/02/03 11:24:11;;;;;;;0.10;0.10;;;10.30;99.90;;;;;;5059269;28;20221;-78
2022/02/03 11:26:55;;;;;;;0.20;0.20;;;10.30;99.90;;;;;;5061772;28;20191;-77
2022/02/03 11:45:56;;;;;;;0.10;0.10;;;9.80;99.90;;;;;;5059275;28;20248;-77
2022/02/03 11:51:38;;;;;;;0.77;0.20;;;9.90;99.90;;;;;;5062086;28;20203;-77
2022/02/03 11:57:53;;;;;;;0.10;0.10;;;10.00;99.90;;;;;;5063736;28;20840;-77
2022/02/03 12:05:45;;;;;;;0.20;0.20;;;10.10;99.90;;;;;;5061765;28;21388;-79
2022/02/03 12:12:05;;;;;;;0.20;0.20;;;10.10;99.90;;;;;;5062394;28;20180;-80
2022/02/03 12:14:44;;;;;;;0.20;0.20;;;10.00;99.90;;;;;;5058522;28;20321;-78
2022/02/03 12:20:17;;;;;;;0.00;0.00;;;10.00;99.90;;;;;;5052137;28;20846;-81
2022/02/03 12:26:03;;;;;;;0.23;0.23;;;10.00;99.90;;;;;;5008008;28;20220;-78
2022/02/03 12:28:52;;;;;;;0.10;0.10;;;10.00;99.90;;;;;;4995916;28;20686;-78
2022/02/03 12:39:12;;;;;;;0.10;0.10;;;9.90;99.90;;;;;;5061128;28;20666;-80
2022/02/03 12:41:44;;;;;;;0.10;0.10;;;9.90;99.90;;;;;;5061649;28;20208;-79
2022/02/03 12:44:21;;;;;;;0.10;0.10;;;10.00;99.90;;;;;;5068318;28;20292;-79
2022/02/03 12:46:51;;;;;;;0.10;0.10;;;10.10;99.90;;;;;;5062441;28;20530;-80
2022/02/03 12:49:21;;;;;;;0.47;0.30;;;10.30;99.90;;;;;;5060137;28;20211;-80
2022/02/03 12:51:49;;;;;;;0.10;0.10;;;10.30;99.90;;;;;;5064434;28;21222;-80
2022/02/03 12:54:16;;;;;;;0.20;0.20;;;10.30;99.90;;;;;;5063810;28;20203;-80
2022/02/03 12:56:45;;;;;;;0.60;0.60;;;10.20;99.90;;;;;;5066940;28;20287;-80
2022/02/03 12:59:13;;;;;;;0.10;0.10;;;10.30;99.90;;;;;;5066476;28;20241;-80
2022/02/03 13:01:42;;;;;;;0.20;0.20;;;10.30;99.90;;;;;;5068302;28;20258;-80
2022/02/03 13:04:18;;;;;;;0.20;0.20;;;10.30;99.90;;;;;;5075075;28;20296;-80
2022/02/03 13:07:05;;;;;;;0.13;0.13;;;10.30;99.90;;;;;;5068223;28;20182;-79
2022/02/03 13:09:42;;;;;;;0.40;0.40;;;10.30;99.90;;;;;;5068331;28;20610;-80
2022/02/03 13:12:24;;;;;;;0.13;0.10;;;10.30;99.90;;;;;;5067695;28;20204;-80
2022/02/03 13:14:56;;;;;;;0.30;0.30;;;10.40;99.90;;;;;;5067319;28;20237;-80
2022/02/03 13:17:28;;;;;;;0.10;0.10;;;10.20;99.90;;;;;;5068218;28;21142;-80
2022/02/03 13:20:06;;;;;;;0.10;0.10;;;10.30;99.90;;;;;;5068687;28;20523;-79
2022/02/03 13:22:41;;;;;;;0.20;0.20;;;10.30;99.90;;;;;;5069715;28;20207;-79
2022/02/03 13:28:10;;;;;;;0.33;0.17;;;10.20;99.90;;;;;;5054530;28;20189;-79
2022/02/03 13:30:49;;;;;;;0.10;0.10;;;10.10;99.90;;;;;;5069522;28;20182;-79
2022/02/03 13:33:25;;;;;;;0.20;0.20;;;10.00;99.90;;;;;;5069405;28;20179;-79
2022/02/03 13:38:50;;;;;;;0.10;0.10;;;10.00;99.90;;;;;;5064775;28;20192;-79
2022/02/03 13:41:23;;;;;;;0.20;0.20;;;10.00;99.90;;;;;;5067801;28;20203;-79
2022/02/03 13:43:50;;;;;;;0.10;0.10;;;10.00;99.90;;;;;;5063046;28;20195;-79
2022/02/03 13:46:29;;;;;;;0.53;0.53;;;10.10;99.90;;;;;;5063755;28;20542;-81
2022/02/03 13:48:57;;;;;;;0.10;0.10;;;10.10;99.90;;;;;;5064949;28;20234;-78
2022/02/03 13:51:35;;;;;;;0.20;0.20;;;10.10;99.90;;;;;;5063240;28;21080;-78
2022/02/03 13:54:20;;;;;;;0.27;0.27;;;10.10;99.90;;;;;;5064300;28;20191;-80
2022/02/03 14:22:58;;;;;;;0.10;0.10;;;9.40;99.90;;;;;;5034400;28;20201;-78
2022/02/03 14:28:10;;;;;;;0.10;0.10;;;9.40;99.90;;;;;;5065300;28;20212;-79
2022/02/03 14:30:42;;;;;;;1.60;0.20;;;9.40;99.90;;;;;;5065545;28;20176;-79
2022/02/03 14:33:08;;;;;;;0.20;0.20;;;9.40;99.90;;;;;;5064899;28;20197;-78
2022/02/03 14:35:38;;;;;;;0.30;0.30;;;9.40;99.90;;;;;;5067480;28;20240;-79
2022/02/03 14:38:17;;;;;;;0.23;0.23;;;9.40;99.90;;;;;;5066586;28;20524;-78
2022/02/03 14:41:05;;;;;;;0.60;0.40;;;9.50;99.90;;;;;;5068788;28;20215;-81
2022/02/03 14:43:31;;;;;;;0.10;0.10;;;9.50;99.90;;;;;;5071635;28;20183;-78
2022/02/03 14:46:01;;;;;;;0.20;0.20;;;9.50;99.90;;;;;;5068318;28;20280;-78
2022/02/03 14:48:30;;;;;;;0.23;0.23;;;9.40;99.90;;;;;;5067225;28;20177;-79
2022/02/03 14:51:00;;;;;;;0.40;0.40;;;9.40;99.90;;;;;;5069690;28;20251;-78
2022/02/03 14:53:36;;;;;;;0.10;0.10;;;9.40;99.90;;;;;;5070794;28;20186;-78
2022/02/03 14:58:49;;;;;;;0.27;0.27;;;9.30;99.90;;;;;;5075524;28;20198;-79
2022/02/03 15:01:15;;;;;;;0.70;0.70;;;9.20;99.90;;;;;;5065942;28;20311;-78
2022/02/03 15:03:42;;;;;;;0.20;0.20;;;9.10;99.90;;;;;;5064963;28;20677;-78
2022/02/03 15:06:11;;;;;;;0.00;0.00;;;9.10;99.90;;;;;;5062519;28;20488;-78
2022/02/03 15:11:12;;;;;;;0.17;0.17;;;9.00;99.90;;;;;;5083167;28;20184;-79
2022/02/03 15:13:42;;;;;;;0.10;0.10;;;9.00;99.90;;;;;;5086039;28;20186;-79
2022/02/03 15:16:13;;;;;;;0.40;0.23;;;9.00;99.90;;;;;;5082165;28;20269;-80
2022/02/03 15:18:40;;;;;;;0.30;0.30;;;9.00;99.90;;;;;;5068566;28;20250;-78
2022/02/03 15:21:10;;;;;;;0.10;0.10;;;9.00;99.90;;;;;;5063208;28;20580;-78
2022/02/03 15:23:40;;;;;;;0.13;0.13;;;9.00;99.90;;;;;;5061909;28;20184;-78
2022/02/03 15:26:06;;;;;;;0.73;0.73;;;9.00;99.90;;;;;;5065224;28;20188;-78
2022/02/03 15:28:32;;;;;;;0.73;0.23;;;9.00;99.90;;;;;;5063756;28;20196;-78
2022/02/03 15:31:00;;;;;;;0.03;0.03;;;9.00;99.90;;;;;;5064215;28;20663;-78
2022/02/03 15:33:28;;;;;;;0.10;0.10;;;9.00;99.90;;;;;;5065024;28;20189;-80
2022/02/03 15:35:58;;;;;;;0.40;0.27;;;8.90;99.90;;;;;;5063378;28;20227;-79
2022/02/03 15:38:31;;;;;;;0.10;0.10;;;8.90;99.90;;;;;;5057676;28;20322;-78
2022/02/03 15:41:01;;;;;;;0.10;0.10;;;8.90;99.90;;;;;;5062580;28;20189;-78
2022/02/03 15:43:31;;;;;;;0.10;0.10;;;8.90;99.90;;;;;;5061764;28;20179;-78
2022/02/03 15:46:01;;;;;;;0.30;0.30;;;8.90;99.90;;;;;;5060031;28;20185;-81
2022/02/03 15:48:40;;;;;;;0.17;0.17;;;9.00;99.90;;;;;;5063747;28;20215;-82
2022/02/03 16:13:13;;;;;;;0.10;0.10;;;8.90;99.90;;;;;;5067442;28;20182;-82
2022/02/03 16:18:11;;;;;;;0.20;0.20;;;8.90;99.90;;;;;;5063525;28;20506;-81
2022/02/03 16:20:48;;;;;;;0.73;0.10;;;8.90;99.90;;;;;;5063267;28;21021;-80
2022/02/03 16:23:55;;;;;;;0.10;0.10;;;8.90;99.90;;;;;;5072664;28;20247;-82
2022/02/03 16:43:21;;;;;;;0.10;0.10;;;8.70;99.90;;;;;;5076993;28;20228;-81
2022/02/03 16:51:15;;;;;;;0.10;0.10;;;8.70;99.90;;;;;;5075800;28;20239;-80
2022/02/03 16:53:42;;;;;;;0.10;0.10;;;8.80;99.90;;;;;;5069176;28;20189;-80
2022/02/03 16:56:11;;;;;;;0.10;0.10;;;8.80;99.90;;;;;;5063367;28;20217;-79
2022/02/03 16:58:41;;;;;;;0.10;0.10;;;8.80;99.90;;;;;;5060517;28;20237;-79
2022/02/03 17:01:08;;;;;;;0.10;0.10;;;8.70;99.90;;;;;;5049798;28;20269;-80
2022/02/03 17:03:34;;;;;;;2.20;0.60;;;8.70;99.90;;;;;;5043886;28;20190;-78
2022/02/03 17:06:00;;;;;;;0.10;0.10;;;8.70;99.90;;;;;;5036305;28;20189;-77
2022/02/03 17:08:37;;;;;;;0.20;0.10;;;8.70;99.90;;;;;;5043053;28;20208;-77
2022/02/03 17:11:03;;;;;;;0.27;0.27;;;8.80;99.90;;;;;;5063595;28;20316;-77
2022/02/03 17:13:31;;;;;;;0.20;0.20;;;8.80;99.90;;;;;;5064159;28;20195;-79
2022/02/03 17:16:00;;;;;;;0.10;0.10;;;8.80;99.90;;;;;;5062732;28;20208;-79
2022/02/03 17:18:27;;;;;;;0.13;0.13;;;8.80;99.90;;;;;;5054073;28;20655;-79
2022/02/03 17:20:58;;;;;;;0.83;0.40;;;8.80;99.90;;;;;;5044613;28;20189;-79
2022/02/03 17:23:27;;;;;;;0.33;0.33;;;8.80;99.90;;;;;;5047747;28;20190;-79
2022/02/03 17:26:10;;;;;;;0.20;0.20;;;8.80;99.90;;;;;;5064709;28;20184;-80
2022/02/03 17:31:50;;;;;;;0.63;0.53;;;8.90;99.90;;;;;;5059758;28;20201;-77
2022/02/03 18:10:00;;;;;;;0.10;0.10;;;8.50;99.90;;;;;;5064785;28;20183;-78
2022/02/03 18:19:15;;;;;;;0.40;0.40;;;8.60;99.90;;;;;;5063832;28;20174;-80
2022/02/03 18:37:28;;;;;;;0.10;0.10;;;8.50;99.90;;;;;;5064209;28;20209;-78
2022/02/03 18:49:18;;;;;;;0.23;0.23;;;8.50;99.90;;;;;;5063382;28;20188;-81
2022/02/03 18:51:00;;;;;;;0.00;0.00;;;8.40;99.90;;;;;;5055221;28;20300;-78
2022/02/03 19:01:48;;;;;;;0.30;0.30;;;8.30;99.90;;;;;;5041227;28;20211;-78
2022/02/03 19:10:32;;;;;;;0.20;0.20;;;8.10;99.90;;;;;;5007537;28;20197;-78
2022/02/03 19:13:52;;;;;;;0.20;0.20;;;8.10;99.90;;;;;;5046429;28;20209;-77
2022/02/03 19:24:21;;;;;;;0.30;0.30;;;8.10;99.90;;;;;;5060114;28;20663;-78
2022/02/03 20:03:27;;;;;;;0.23;0.23;;;8.30;99.90;;;;;;5013867;28;20230;-79
2022/02/03 20:08:33;;;;;;;1.13;0.50;;;8.40;99.90;;;;;;5051382;28;20280;-79
2022/02/03 20:10:59;;;;;;;1.07;0.50;;;8.30;99.90;;;;;;5056953;28;20173;-79
2022/02/03 20:13:25;;;;;;;0.23;0.23;;;8.30;99.90;;;;;;5057226;28;20731;-79
2022/02/03 20:15:53;;;;;;;0.57;0.57;;;8.30;99.90;;;;;;5060326;28;20209;-79
2022/02/03 20:18:20;;;;;;;0.10;0.10;;;8.30;99.90;;;;;;5053890;28;20189;-80
2022/02/03 20:20:47;;;;;;;0.30;0.30;;;8.30;99.90;;;;;;5057185;28;20681;-78
2022/02/03 20:23:17;;;;;;;3.63;0.63;;;8.20;99.90;;;;;;5055917;28;20210;-79
2022/02/03 20:25:49;;;;;;;0.20;0.20;;;8.20;99.90;;;;;;5059901;28;20189;-78
2022/02/03 20:28:15;;;;;;;1.40;0.30;;;8.20;99.90;;;;;;5059725;28;20197;-76
2022/02/03 20:30:41;;;;;;;3.27;0.70;;;8.20;99.90;;;;;;5061736;28;20197;-79
2022/02/03 20:33:13;;;;;;;0.20;0.20;;;8.20;99.90;;;;;;5037758;28;20209;-78
2022/02/03 20:35:42;;;;;;;0.10;0.10;;;8.20;99.90;;;;;;5042672;28;20194;-79
2022/02/03 20:38:09;;;;;;;1.70;0.53;;;8.20;99.90;;;;;;5035903;28;20225;-79
2022/02/03 20:40:54;;;;;;;0.17;0.17;;;8.20;99.90;;;;;;5051830;28;20189;-78
2022/02/03 20:43:21;;;;;;;0.47;0.47;;;8.10;99.90;;;;;;5056576;28;20178;-78
2022/02/03 20:45:51;;;;;;;0.67;0.27;;;8.10;99.90;;;;;;5057054;28;20189;-78
2022/02/03 20:48:17;;;;;;;1.07;0.97;;;8.20;99.90;;;;;;5058015;28;20191;-78
2022/02/03 20:50:46;;;;;;;0.00;0.00;;;8.20;99.90;;;;;;5052502;28;20338;-79
2022/02/03 20:53:14;;;;;;;0.90;0.90;;;8.20;99.90;;;;;;5053978;28;20376;-78
2022/02/03 20:55:49;;;;;;;0.10;0.10;;;8.20;99.90;;;;;;5056145;28;20239;-78
2022/02/03 20:58:17;;;;;;;0.00;0.00;;;8.20;99.90;;;;;;5057817;28;20209;-79
2022/02/03 21:05:46;;;;;;;0.23;0.23;;;8.30;99.90;;;;;;5050466;28;20674;-77
2022/02/03 21:08:21;;;;;;;0.27;0.10;;;8.30;99.90;;;;;;5057866;28;20193;-77
2022/02/03 21:10:48;;;;;;;0.70;0.70;;;8.30;99.90;;;;;;5057967;28;20220;-77
2022/02/03 21:13:17;;;;;;;0.23;0.23;;;8.30;99.90;;;;;;5062520;28;20987;-80
2022/02/03 21:15:43;;;;;;;0.37;0.37;;;8.30;99.90;;;;;;5056035;28;20219;-78
2022/02/03 21:18:12;;;;;;;0.30;0.30;;;8.30;99.90;;;;;;5060640;28;20184;-77
2022/02/03 21:20:40;;;;;;;0.20;0.20;;;8.30;99.90;;;;;;5063180;28;20182;-77
2022/02/03 21:23:09;;;;;;;0.40;0.40;;;8.30;99.90;;;;;;5066210;28;20211;-78
2022/02/03 21:25:46;;;;;;;0.30;0.30;;;8.30;99.90;;;;;;5042668;28;20538;-78
2022/02/03 21:28:20;;;;;;;0.57;0.40;;;8.40;99.90;;;;;;5050130;28;20195;-78
2022/02/03 21:30:50;;;;;;;0.30;0.30;;;8.40;99.90;;;;;;5052607;28;20170;-78
2022/02/03 21:33:24;;;;;;;0.43;0.43;;;8.40;99.90;;;;;;5063906;28;20269;-78
2022/02/03 21:35:51;;;;;;;0.50;0.30;;;8.30;99.90;;;;;;5066475;28;20336;-78
2022/02/03 21:38:18;;;;;;;0.20;0.20;;;8.30;99.90;;;;;;5068533;28;20189;-78
2022/02/03 21:40:45;;;;;;;0.50;0.50;;;8.30;99.90;;;;;;5064606;28;20182;-78
2022/02/03 21:43:11;;;;;;;0.17;0.17;;;8.30;99.90;;;;;;5062686;28;20212;-78
2022/02/03 21:45:42;;;;;;;0.43;0.37;;;8.30;99.90;;;;;;5061681;28;20330;-78
2022/02/03 21:48:09;;;;;;;0.20;0.20;;;8.30;99.90;;;;;;5062412;28;20189;-79
2022/02/03 21:50:38;;;;;;;0.50;0.50;;;8.30;99.90;;;;;;5063838;28;20716;-78
2022/02/03 21:53:19;;;;;;;0.10;0.10;;;8.20;99.90;;;;;;5061055;28;20203;-78
2022/02/03 21:55:47;;;;;;;0.23;0.23;;;8.30;99.90;;;;;;5061886;28;20206;-77
2022/02/03 21:58:14;;;;;;;1.67;0.90;;;8.30;99.90;;;;;;5062404;28;20186;-78
2022/02/03 22:00:41;;;;;;;0.37;0.37;;;8.20;99.90;;;;;;5062899;28;20199;-78
2022/02/03 22:03:14;;;;;;;0.17;0.17;;;8.30;99.90;;;;;;5059870;28;20213;-79
2022/02/03 22:05:43;;;;;;;0.53;0.53;;;8.30;99.90;;;;;;5058577;28;21015;-78
2022/02/03 22:08:09;;;;;;;0.10;0.10;;;8.30;99.90;;;;;;5062596;28;20601;-78
2022/02/03 22:10:35;;;;;;;0.30;0.30;;;8.20;99.90;;;;;;5061567;28;20192;-78
2022/02/03 22:13:03;;;;;;;0.57;0.40;;;8.20;99.90;;;;;;5063085;28;20212;-78
2022/02/03 22:15:30;;;;;;;1.00;0.23;;;8.20;99.90;;;;;;5060865;28;20604;-78
2022/02/03 22:18:03;;;;;;;0.23;0.23;;;8.20;99.90;;;;;;5060215;28;20226;-78
2022/02/03 22:20:37;;;;;;;0.57;0.33;;;8.20;99.90;;;;;;5059786;28;20179;-78
2022/02/03 22:26:42;;;;;;;0.37;0.37;;;8.20;99.90;;;;;;5039252;28;20190;-78
2022/02/03 22:48:26;;;;;;;0.50;0.50;;;8.20;99.90;;;;;;5025813;28;20224;-80
2022/02/03 22:50:55;;;;;;;0.30;0.30;;;8.10;99.90;;;;;;5064730;28;20185;-79
2022/02/03 22:53:21;;;;;;;2.23;0.50;;;8.10;99.90;;;;;;5060166;28;20199;-79
2022/02/03 22:55:50;;;;;;;0.57;0.47;;;8.10;99.90;;;;;;5062973;28;20558;-80
2022/02/03 22:58:48;;;;;;;0.33;0.30;;;8.10;99.90;;;;;;5064379;28;20191;-79
2022/02/03 23:01:15;;;;;;;0.10;0.10;;;8.10;99.90;;;;;;5062897;28;20264;-79
2022/02/03 23:03:42;;;;;;;1.23;0.53;;;8.00;99.90;;;;;;5062454;28;20228;-79
2022/02/03 23:06:09;;;;;;;0.20;0.20;;;8.00;99.90;;;;;;5061232;28;20197;-79
2022/02/03 23:08:52;;;;;;;0.60;0.47;;;8.00;99.90;;;;;;5063565;28;20197;-79
2022/02/03 23:24:06;;;;;;;0.30;0.30;;;7.70;99.90;;;;;;5064398;28;20551;-78
2022/02/03 23:26:35;;;;;;;1.87;0.30;;;7.70;99.90;;;;;;5074632;28;20215;-78
2022/02/03 23:29:09;;;;;;;0.77;0.77;;;7.70;99.90;;;;;;5065144;28;20207;-78
2022/02/03 23:32:36;;;;;;;1.57;0.87;;;7.70;99.90;;;;;;5064689;28;20204;-78
2022/02/03 23:34:31;;;;;;;0.43;0.30;;;7.60;99.90;;;;;;5062759;28;20207;-78
2022/02/03 23:36:56;;;;;;;0.30;0.30;;;7.60;99.90;;;;;;5067099;28;21111;-78
2022/02/03 23:39:40;;;;;;;0.23;0.23;;;7.60;99.90;;;;;;5067955;28;20573;-78
2022/02/03 23:45:03;;;;;;;0.57;0.50;;;7.70;99.90;;;;;;5062152;28;20182;-79
2022/02/03 23:50:44;;;;;;;0.30;0.30;;;7.60;99.90;;;;;;5064545;28;20562;-79
